Terminal Aerodrome Forecast
Issued by NWS Memphis, TN

Home | Current Version | Previous Version | Text Only | Print | Product List | Glossary On
Versions: 1 2 3 4 5 6 7 8 9 10 11 12 13 14 15 16 17 18 19 20
000
FTUS44 KMEG 271130
TAFMKL
TAF
KMKL 271130Z 2712/2812 05007KT P6SM BKN250
     FM271700 04010G15KT P6SM OVC200
     FM280000 04006KT P6SM SCT100 OVC150=

USA.gov is the U.S. government's official web portal to all federal, state and local government web resources and services.